Time;durP1;ratioP1;P1;durP2;ratioP2;P2;SDS_P1;SDS_P2;PMS_P1;PMS_P2;Temp;Humidity;BMP_temperature;BMP_pressure;BME280_temperature;BME280_humidity;BME280_pressure;Samples;Min_cycle;Max_cycle;Signal;HPM_P1;HPM_P2
2021/06/08 00:01:23;;;;;;;9.48;5.05;;;;;;;14.40;100.00;99748.01;1784928;80;20910;-71
2021/06/08 00:03:50;;;;;;;6.58;5.42;;;;;;;14.37;100.00;99741.25;1785952;80;20887;-67
2021/06/08 00:06:17;;;;;;;6.20;5.70;;;;;;;14.34;100.00;99741.00;1786094;80;20993;-70
2021/06/08 00:08:44;;;;;;;7.55;4.95;;;;;;;14.33;100.00;99751.59;1786115;80;21137;-70
2021/06/08 00:11:11;;;;;;;7.12;5.53;;;;;;;14.28;100.00;99749.32;1785957;80;20931;-70
2021/06/08 00:13:38;;;;;;;6.40;5.62;;;;;;;14.24;100.00;99745.74;1786349;80;21520;-70
2021/06/08 00:16:05;;;;;;;6.55;5.45;;;;;;;14.21;100.00;99748.11;1786066;80;20950;-71
2021/06/08 00:18:32;;;;;;;5.80;5.30;;;;;;;14.18;100.00;99746.20;1786448;80;21583;-70
2021/06/08 00:20:59;;;;;;;6.12;5.53;;;;;;;14.17;100.00;99749.77;1786192;80;21143;-69
2021/06/08 00:23:26;;;;;;;5.87;5.28;;;;;;;14.15;100.00;99748.57;1786003;80;20989;-66
2021/06/08 00:25:53;;;;;;;5.65;5.15;;;;;;;14.14;100.00;99744.28;1786083;80;20895;-69
2021/06/08 00:28:20;;;;;;;6.62;5.55;;;;;;;14.12;100.00;99750.58;1786243;80;21567;-66
2021/06/08 00:30:47;;;;;;;6.83;5.80;;;;;;;14.09;100.00;99751.65;1786029;80;20977;-67
2021/06/08 00:33:14;;;;;;;6.20;5.60;;;;;;;14.09;100.00;99752.95;1786133;80;21109;-66
2021/06/08 00:35:42;;;;;;;6.78;5.65;;;;;;;14.08;100.00;99755.22;1785974;80;20930;-66
2021/06/08 00:38:09;;;;;;;6.65;5.60;;;;;;;14.08;100.00;99754.38;1786282;80;20915;-66
2021/06/08 00:40:35;;;;;;;5.90;5.40;;;;;;;14.05;100.00;99755.44;1785984;80;20946;-66
2021/06/08 00:43:02;;;;;;;7.72;5.67;;;;;;;14.05;100.00;99754.61;1762353;80;20859;-65
2021/06/08 00:45:29;;;;;;;6.08;5.47;;;;;;;14.03;100.00;99755.55;1785939;80;21120;-66
2021/06/08 00:47:56;;;;;;;7.83;5.65;;;;;;;14.02;100.00;99752.58;1786210;80;21005;-67
2021/06/08 00:50:23;;;;;;;6.40;5.83;;;;;;;14.01;100.00;99756.62;1785970;80;20969;-66
2021/06/08 00:52:51;;;;;;;6.37;5.78;;;;;;;13.98;100.00;99757.71;1786192;80;20942;-66
2021/06/08 00:55:20;;;;;;;8.00;6.97;;;;;;;13.97;100.00;99758.66;1786018;80;20930;-65
2021/06/08 00:57:48;;;;;;;6.65;6.05;;;;;;;13.97;100.00;99757.83;1786313;80;21069;-68
2021/06/08 01:00:16;;;;;;;7.08;6.37;;;;;;;13.97;100.00;99748.66;1762478;80;20973;-66
2021/06/08 01:02:43;;;;;;;7.30;5.92;;;;;;;13.97;100.00;99756.05;1783651;80;21224;-68
2021/06/08 01:05:12;;;;;;;6.92;5.92;;;;;;;13.99;100.00;99759.34;1783541;80;20906;-68
2021/06/08 01:07:39;;;;;;;6.00;5.50;;;;;;;13.98;100.00;99757.71;1783571;80;20855;-67
2021/06/08 01:10:09;;;;;;;9.23;6.40;;;;;;;14.00;100.00;99759.71;1783964;80;21084;-66
2021/06/08 01:12:36;;;;;;;6.50;5.90;;;;;;;13.99;100.00;99756.73;1783577;80;20958;-66
2021/06/08 01:15:04;;;;;;;13.38;6.47;;;;;;;14.00;100.00;99761.49;1783830;80;21486;-67
2021/06/08 01:17:31;;;;;;;8.20;5.80;;;;;;;14.01;100.00;99760.55;1783611;80;20918;-66
2021/06/08 01:19:59;;;;;;;6.65;6.00;;;;;;;14.02;100.00;99767.45;1783739;80;20989;-66
2021/06/08 01:22:26;;;;;;;7.47;5.70;;;;;;;14.02;100.00;99765.66;1783612;80;21077;-66
2021/06/08 01:24:53;;;;;;;6.37;5.87;;;;;;;14.04;100.00;99766.86;1783922;80;20970;-66
2021/06/08 01:27:21;;;;;;;6.75;6.03;;;;;;;14.06;100.00;99770.20;1783696;80;20982;-66
2021/06/08 01:29:50;;;;;;;6.72;6.05;;;;;;;14.07;100.00;99769.25;1784028;80;21479;-66
2021/06/08 01:32:19;;;;;;;6.50;5.90;;;;;;;14.10;100.00;99776.05;1783242;80;20895;-66
2021/06/08 01:34:46;;;;;;;7.37;5.90;;;;;;;14.11;100.00;99775.94;1783838;80;21504;-67
2021/06/08 01:37:14;;;;;;;6.05;5.42;;;;;;;14.12;100.00;99774.98;1783461;80;20910;-66
2021/06/08 01:39:42;;;;;;;7.12;6.12;;;;;;;14.12;100.00;99778.08;1783854;80;21474;-67
2021/06/08 01:42:09;;;;;;;6.17;5.67;;;;;;;14.12;100.00;99777.60;1783536;80;20922;-67
2021/06/08 01:44:36;;;;;;;9.05;5.70;;;;;;;14.11;100.00;99777.24;1783720;80;20891;-66
2021/06/08 01:47:03;;;;;;;7.08;5.83;;;;;;;14.11;100.00;99779.03;1734365;80;21127;-67
2021/06/08 01:49:30;;;;;;;7.20;6.60;;;;;;;14.09;100.00;99782.23;1783487;80;20891;-67
2021/06/08 01:52:35;;;;;;;6.45;5.85;;;;;;;14.10;100.00;99783.43;1783708;80;20927;-68
2021/06/08 01:55:24;;;;;;;6.40;5.80;;;;;;;14.09;100.00;99783.06;1783602;80;20954;-67
2021/06/08 01:57:54;;;;;;;10.10;6.40;;;;;;;14.09;100.00;99783.54;1783581;80;20879;-68
2021/06/08 02:00:34;;;;;;;7.47;6.17;;;;;;;14.06;100.00;99779.36;1784364;80;21129;-68
2021/06/08 02:03:21;;;;;;;6.58;5.97;;;;;;;14.06;100.00;99779.36;1786069;80;20886;-67
2021/06/08 02:06:29;;;;;;;6.83;6.15;;;;;;;14.07;100.00;99781.03;1786220;80;20946;-67
2021/06/08 02:09:26;;;;;;;7.90;6.40;;;;;;;14.08;100.00;99774.85;1786097;80;20950;-67
2021/06/08 02:12:07;;;;;;;7.17;6.47;;;;;;;14.09;100.00;99771.76;1756550;80;20953;-67
2021/06/08 02:14:44;;;;;;;7.28;6.53;;;;;;;14.09;100.00;99767.83;1776625;80;21095;-67
2021/06/08 02:17:22;;;;;;;7.55;6.75;;;;;;;14.14;100.00;99766.54;1780428;80;20898;-67
2021/06/08 02:19:50;;;;;;;7.65;6.95;;;;;;;14.20;100.00;99763.94;1786148;80;20930;-69
2021/06/08 02:22:22;;;;;;;8.98;7.40;;;;;;;14.34;100.00;99759.34;1786024;80;20927;-67
2021/06/08 02:24:49;;;;;;;7.33;6.65;;;;;;;14.61;100.00;99764.75;1786380;80;20908;-68
2021/06/08 02:27:16;;;;;;;7.12;6.53;;;;;;;15.02;100.00;99762.83;1786150;80;21136;-67
2021/06/08 02:29:46;;;;;;;7.80;6.70;;;;;;;15.46;100.00;99756.66;1786350;80;20887;-67
2021/06/08 02:32:15;;;;;;;6.65;6.05;;;;;;;15.90;100.00;99752.23;1786060;80;21076;-67
2021/06/08 02:34:42;;;;;;;6.47;5.83;;;;;;;16.39;100.00;99750.76;1786319;80;20895;-68
2021/06/08 02:37:10;;;;;;;7.00;6.05;;;;;;;16.86;98.74;99749.31;1762086;80;21492;-67
2021/06/08 02:39:41;;;;;;;6.62;5.72;;;;;;;17.33;96.24;99749.93;1786084;80;21117;-67
2021/06/08 02:42:10;;;;;;;7.10;6.30;;;;;;;17.82;93.48;99752.64;1786232;80;20890;-67
2021/06/08 02:44:37;;;;;;;6.35;5.75;;;;;;;18.23;89.76;99760.70;1786056;80;20942;-67
2021/06/08 02:47:04;;;;;;;8.75;5.85;;;;;;;18.56;87.16;99757.56;1786077;80;21516;-67
2021/06/08 02:49:32;;;;;;;6.35;5.75;;;;;;;18.87;84.83;99752.05;1786105;80;20930;-66
2021/06/08 02:51:59;;;;;;;6.85;6.00;;;;;;;19.20;83.06;99757.22;1786022;80;21084;-67
2021/06/08 02:54:26;;;;;;;10.15;5.62;;;;;;;19.54;81.49;99758.80;1762176;80;20871;-68
2021/06/08 02:56:54;;;;;;;5.87;5.33;;;;;;;19.89;79.70;99757.46;1786071;80;20922;-67
2021/06/08 02:59:21;;;;;;;11.03;5.65;;;;;;;20.27;77.88;99759.40;1786098;80;20891;-67
2021/06/08 03:01:52;;;;;;;7.53;5.15;;;;;;;20.62;75.33;99762.45;1786072;80;20927;-67
2021/06/08 03:04:20;;;;;;;6.90;5.05;;;;;;;21.25;71.41;99748.83;1763008;80;21126;-67
2021/06/08 03:06:54;;;;;;;6.08;5.47;;;;;;;21.25;71.41;99748.83;1786244;80;20935;-67
2021/06/08 03:09:44;;;;;;;6.12;5.53;;;;;;;21.54;69.87;99762.99;1786208;80;20906;-66
2021/06/08 03:12:14;;;;;;;6.10;5.03;;;;;;;21.79;68.70;99762.52;1786096;80;20950;-66
2021/06/08 03:14:43;;;;;;;6.67;6.12;;;;;;;22.04;67.04;99761.55;1786025;80;20890;-66
2021/06/08 03:17:11;;;;;;;6.80;6.15;;;;;;;22.18;66.44;99769.34;1786062;80;21120;-67
2021/06/08 03:19:38;;;;;;;7.42;6.00;;;;;;;22.14;64.98;99768.84;1785967;80;20942;-66
2021/06/08 03:22:11;;;;;;;6.30;5.70;;;;;;;21.84;64.54;99775.61;1786025;80;20998;-66
2021/06/08 03:24:41;;;;;;;6.40;5.80;;;;;;;21.47;65.24;99773.91;1786127;80;20966;-66
2021/06/08 03:27:09;;;;;;;6.40;5.70;;;;;;;21.07;66.03;99771.93;1785364;80;20926;-66
2021/06/08 03:29:36;;;;;;;7.53;5.70;;;;;;;20.70;66.78;99779.70;1786025;80;21134;-66
2021/06/08 03:32:04;;;;;;;6.78;6.08;;;;;;;20.44;67.80;99777.05;1785922;80;20934;-66
2021/06/08 03:34:32;;;;;;;7.78;5.30;;;;;;;20.38;68.82;99776.86;1786126;80;20890;-66
2021/06/08 03:36:59;;;;;;;9.05;6.60;;;;;;;20.51;69.09;99781.23;1786043;80;20895;-66
2021/06/08 03:39:26;;;;;;;8.48;7.42;;;;;;;20.81;68.75;99787.34;1785982;80;20899;-66
2021/06/08 03:41:53;;;;;;;7.22;6.53;;;;;;;21.21;67.99;99777.45;1785950;80;21105;-66
2021/06/08 03:44:20;;;;;;;7.35;6.28;;;;;;;21.70;66.49;99778.07;1786043;80;21044;-67
2021/06/08 03:46:48;;;;;;;7.50;6.00;;;;;;;22.14;65.01;99783.43;1786335;80;20903;-66
2021/06/08 03:49:16;;;;;;;6.33;5.62;;;;;;;22.55;63.82;99788.19;1785941;80;21046;-66
2021/06/08 03:51:43;;;;;;;8.75;6.60;;;;;;;22.85;62.53;99793.77;1786330;80;20898;-66
2021/06/08 03:54:11;;;;;;;10.63;6.70;;;;;;;23.12;60.88;99792.53;1786335;80;21900;-66
2021/06/08 03:56:41;;;;;;;7.20;6.33;;;;;;;23.17;60.58;99793.67;1786176;80;20930;-66
2021/06/08 03:59:11;;;;;;;6.25;5.65;;;;;;;23.05;60.01;99791.56;1786014;80;21533;-66
2021/06/08 04:01:38;;;;;;;6.40;5.78;;;;;;;22.75;60.25;99791.30;1786024;80;21227;-66
2021/06/08 04:04:06;;;;;;;7.50;5.42;;;;;;;22.40;61.15;99793.84;1785997;80;21013;-66
2021/06/08 04:06:34;;;;;;;5.97;5.47;;;;;;;22.09;61.82;99796.84;1786365;80;21075;-66
2021/06/08 04:09:08;;;;;;;10.18;6.10;;;;;;;21.75;62.61;99795.14;1785904;80;20937;-66
2021/06/08 04:11:37;;;;;;;6.15;5.58;;;;;;;21.46;63.71;99798.73;1785998;80;20891;-66
2021/06/08 04:14:04;;;;;;;6.67;6.05;;;;;;;21.34;64.33;99794.22;1785211;80;20930;-66
2021/06/08 04:16:33;;;;;;;5.95;5.42;;;;;;;21.23;64.99;99795.34;1786382;80;20847;-66
2021/06/08 04:19:00;;;;;;;6.72;6.05;;;;;;;21.21;65.13;99801.29;1786008;80;21192;-66
2021/06/08 04:21:27;;;;;;;6.78;5.92;;;;;;;21.18;65.25;99801.60;1786401;80;20946;-66
2021/06/08 04:24:01;;;;;;;7.22;5.78;;;;;;;21.13;65.44;99801.25;1786164;80;20969;-67
2021/06/08 04:26:28;;;;;;;6.15;5.55;;;;;;;21.06;65.41;99803.36;1786273;80;20962;-67
2021/06/08 04:28:55;;;;;;;5.65;5.20;;;;;;;21.04;65.79;99802.20;1786018;80;20935;-67
2021/06/08 04:31:25;;;;;;;6.53;5.90;;;;;;;21.24;66.12;99797.48;1786393;80;21196;-67
2021/06/08 04:33:53;;;;;;;6.20;5.60;;;;;;;21.56;65.39;99797.61;1785977;80;20883;-67
2021/06/08 04:36:20;;;;;;;6.70;6.00;;;;;;;21.86;64.73;99803.28;1786297;80;21537;-67
2021/06/08 04:38:47;;;;;;;5.70;5.12;;;;;;;22.23;63.47;99807.63;1785990;80;20942;-67
2021/06/08 04:41:14;;;;;;;5.90;5.40;;;;;;;22.72;62.08;99804.09;1786343;80;20977;-66
2021/06/08 04:43:42;;;;;;;7.62;6.35;;;;;;;23.19;61.00;99811.56;1786170;80;21526;-66
2021/06/08 04:46:12;;;;;;;8.70;6.05;;;;;;;23.67;59.58;99802.22;1786163;80;20939;-66
2021/06/08 04:48:40;;;;;;;8.35;5.35;;;;;;;24.13;58.33;99809.70;1801420;78;21449;-66
2021/06/08 04:51:07;;;;;;;5.97;5.17;;;;;;;24.64;57.13;99811.27;1818412;79;20925;-66
2021/06/08 04:53:34;;;;;;;5.20;4.78;;;;;;;25.07;55.08;99810.48;1805178;78;20965;-66
2021/06/08 04:56:05;;;;;;;10.70;5.55;;;;;;;25.40;54.74;99813.55;1803831;78;49354;-66
2021/06/08 04:58:32;;;;;;;6.72;4.90;;;;;;;25.78;53.21;99809.38;1791163;79;21604;-67
2021/06/08 05:01:17;;;;;;;4.55;4.25;;;;;;;26.04;52.32;99806.95;1795652;78;20982;-68
2021/06/08 05:03:47;;;;;;;7.45;4.85;;;;;;;26.23;52.36;99812.16;1798029;79;20962;-68
2021/06/08 05:06:28;;;;;;;7.35;4.65;;;;;;;26.51;51.16;99810.35;1797997;79;20986;-68
2021/06/08 05:09:00;;;;;;;6.78;4.75;;;;;;;26.80;50.54;99812.48;1782950;78;21102;-67
2021/06/08 05:11:34;;;;;;;5.22;4.60;;;;;;;27.17;49.79;99819.31;1786414;79;20932;-73
2021/06/08 05:14:03;;;;;;;5.37;4.70;;;;;;;27.49;49.02;99814.61;1778077;78;20974;-71
2021/06/08 05:16:30;;;;;;;4.87;4.42;;;;;;;27.88;48.32;99811.74;1787179;78;20884;-71
2021/06/08 05:18:57;;;;;;;5.22;4.67;;;;;;;28.27;47.62;99817.67;1783872;78;21014;-66
2021/06/08 05:21:24;;;;;;;6.62;4.97;;;;;;;28.49;46.89;99808.38;1782041;79;21079;-67
2021/06/08 05:23:52;;;;;;;8.05;5.20;;;;;;;28.42;46.77;99810.75;1776379;78;21173;-69
2021/06/08 05:26:21;;;;;;;5.92;5.42;;;;;;;28.33;47.05;99817.37;1784665;78;20947;-71
2021/06/08 05:28:49;;;;;;;14.75;10.15;;;;;;;28.25;46.95;99813.55;1784472;78;20920;-70
2021/06/08 05:31:19;;;;;;;7.28;6.58;;;;;;;27.97;47.15;99819.07;1768165;79;20923;-72
2021/06/08 05:33:47;;;;;;;6.22;5.62;;;;;;;27.70;47.04;99814.98;1782001;78;21085;-73
2021/06/08 05:36:14;;;;;;;8.00;5.12;;;;;;;27.33;48.02;99818.95;1781783;78;21033;-70
2021/06/08 05:38:46;;;;;;;7.28;4.87;;;;;;;27.01;48.75;99820.46;1783401;79;20923;-71
2021/06/08 05:41:14;;;;;;;5.08;4.50;;;;;;;26.70;49.19;99817.37;1792255;78;20975;-70
2021/06/08 05:43:42;;;;;;;5.03;4.55;;;;;;;26.39;50.31;99819.11;1782456;78;20899;-69
2021/06/08 05:46:10;;;;;;;8.35;4.60;;;;;;;26.16;51.16;99815.28;1787753;78;21286;-70
2021/06/08 05:48:37;;;;;;;4.92;4.53;;;;;;;26.06;51.88;99819.59;1785192;78;21580;-70
2021/06/08 05:51:05;;;;;;;5.03;4.35;;;;;;;26.07;52.30;99813.75;1776813;78;20975;-69
2021/06/08 05:53:45;;;;;;;5.85;4.75;;;;;;;25.98;51.33;99812.25;1790450;79;20935;-70
2021/06/08 05:56:12;;;;;;;5.75;5.10;;;;;;;25.67;51.89;99814.69;1778300;78;20971;-72
2021/06/08 05:58:40;;;;;;;6.25;5.15;;;;;;;25.34;53.19;99812.13;1789937;79;21702;-71
2021/06/08 06:01:10;;;;;;;8.30;6.90;;;;;;;25.14;53.77;99811.39;1785027;77;20994;-71
2021/06/08 06:03:38;;;;;;;11.75;7.05;;;;;;;25.18;54.02;99810.02;1821542;77;20952;-72
2021/06/08 06:06:06;;;;;;;7.50;5.42;;;;;;;25.23;53.63;99804.09;1807711;77;21492;-70
2021/06/08 06:08:39;;;;;;;5.85;4.62;;;;;;;25.25;53.16;99808.73;1762496;78;20966;-71
2021/06/08 06:11:07;;;;;;;5.20;4.60;;;;;;;25.13;53.91;99808.41;1792417;77;21214;-70
2021/06/08 06:13:49;;;;;;;5.00;4.60;;;;;;;25.18;54.45;99802.02;1811157;77;20989;-69
2021/06/08 06:16:17;;;;;;;4.92;4.35;;;;;;;25.34;54.72;99802.30;1814851;77;21667;-68
2021/06/08 06:18:44;;;;;;;4.78;4.37;;;;;;;25.51;53.69;99802.41;1806678;77;20984;-73
2021/06/08 06:21:11;;;;;;;5.05;4.53;;;;;;;25.70;53.52;99796.16;1816723;77;21427;-72
2021/06/08 06:23:38;;;;;;;6.83;4.33;;;;;;;25.88;53.31;99799.22;1792269;78;21560;-74
2021/06/08 06:26:05;;;;;;;5.22;4.60;;;;;;;26.03;52.67;99790.63;1811654;77;20959;-71
2021/06/08 06:28:33;;;;;;;4.08;3.77;;;;;;;26.15;51.83;99794.44;1815962;77;20932;-72
2021/06/08 06:31:04;;;;;;;8.65;4.62;;;;;;;26.28;51.79;99792.91;1815710;77;20935;-69
2021/06/08 06:33:31;;;;;;;5.15;4.47;;;;;;;26.39;51.22;99793.75;1783650;78;21429;-68
2021/06/08 06:35:58;;;;;;;4.83;4.40;;;;;;;26.39;50.41;99793.75;1810884;77;21581;-68
2021/06/08 06:38:25;;;;;;;4.03;3.70;;;;;;;26.32;50.87;99796.87;1805391;77;20895;-70
2021/06/08 06:40:52;;;;;;;4.87;3.75;;;;;;;26.28;50.76;99791.56;1812525;77;21705;-69
2021/06/08 06:43:26;;;;;;;4.40;4.00;;;;;;;26.18;50.04;99790.55;1817321;77;20959;-71
2021/06/08 06:45:53;;;;;;;3.75;3.50;;;;;;;25.87;51.05;99789.57;1785204;79;20897;-68
2021/06/08 06:48:20;;;;;;;3.85;3.52;;;;;;;25.79;51.69;99784.36;1820552;77;21101;-72
2021/06/08 06:50:47;;;;;;;5.55;3.37;;;;;;;25.87;51.36;99787.73;1818472;78;20887;-71
2021/06/08 06:53:19;;;;;;;3.62;3.33;;;;;;;25.90;50.51;99792.69;1815732;79;21007;-70
2021/06/08 06:55:51;;;;;;;4.45;3.52;;;;;;;25.91;49.82;99791.67;1812586;79;20979;-69
2021/06/08 06:58:21;;;;;;;3.45;3.15;;;;;;;25.87;50.35;99783.73;1810865;78;20962;-69
2021/06/08 07:00:48;;;;;;;4.62;3.67;;;;;;;25.83;51.47;99794.97;1812805;78;21516;-71
2021/06/08 07:03:16;;;;;;;3.75;3.45;;;;;;;25.82;51.50;99784.80;1824812;77;21049;-67
2021/06/08 07:05:44;;;;;;;3.30;3.10;;;;;;;25.89;51.04;99788.36;1829006;77;20989;-69
2021/06/08 07:08:11;;;;;;;4.03;3.60;;;;;;;26.05;50.46;99787.26;1822570;77;20991;-70
2021/06/08 07:10:39;;;;;;;4.28;3.40;;;;;;;26.14;50.12;99785.28;1812724;77;20891;-72
2021/06/08 07:13:07;;;;;;;4.37;3.98;;;;;;;26.25;50.72;99790.93;1778723;80;21132;-71
2021/06/08 07:15:34;;;;;;;3.45;3.15;;;;;;;26.39;50.10;99791.88;1806441;78;21004;-70
2021/06/08 07:18:03;;;;;;;3.60;3.30;;;;;;;26.48;49.22;99795.22;1818167;78;20961;-68
2021/06/08 07:20:30;;;;;;;5.22;3.35;;;;;;;26.47;48.91;99792.23;1823170;77;20995;-70
2021/06/08 07:23:02;;;;;;;3.55;3.27;;;;;;;26.57;49.18;99796.22;1788379;80;20978;-74
2021/06/08 07:25:36;;;;;;;3.75;3.37;;;;;;;26.80;48.29;99794.61;1783660;79;21777;-69
2021/06/08 07:28:00;;;;;;;3.10;2.90;;;;;;;27.08;47.45;99800.45;1810261;79;20978;-70
2021/06/08 07:30:27;;;;;;;3.42;3.08;;;;;;;27.40;46.91;99788.23;1817300;77;21008;-73
2021/06/08 07:33:02;;;;;;;5.78;3.60;;;;;;;27.75;47.07;99781.77;1820356;78;20974;-67
2021/06/08 07:35:38;;;;;;;;;;;;;;;28.06;46.85;99783.84;1823794;77;20998;-70
2021/06/08 07:38:08;;;;;;;;;;;;;;;28.26;46.24;99786.57;1818433;77;21125;-70
2021/06/08 07:40:39;;;;;;;3.87;3.58;;;;;;;28.29;45.56;99786.16;1789011;78;20205;-70
2021/06/08 07:43:07;;;;;;;3.75;3.45;;;;;;;28.46;45.81;99783.86;1820407;77;20927;-69
2021/06/08 07:45:38;;;;;;;3.27;3.05;;;;;;;28.72;44.75;99782.49;1817306;78;20962;-68
2021/06/08 07:48:07;;;;;;;4.33;3.02;;;;;;;28.80;43.44;99780.08;1819752;78;21020;-70
2021/06/08 07:50:37;;;;;;;6.72;3.22;;;;;;;28.63;43.26;99781.58;1807176;78;21129;-70
2021/06/08 07:53:04;;;;;;;3.42;3.02;;;;;;;28.41;43.82;99783.66;1807552;78;20949;-68
2021/06/08 07:55:31;;;;;;;3.15;2.85;;;;;;;28.04;42.73;99785.91;1816424;77;20954;-70
2021/06/08 07:57:59;;;;;;;3.65;3.15;;;;;;;27.71;43.50;99781.86;1806795;78;20887;-69
2021/06/08 08:00:26;;;;;;;3.35;3.10;;;;;;;27.52;44.95;99786.13;1751808;81;20978;-69
2021/06/08 08:02:54;;;;;;;3.47;3.22;;;;;;;27.57;44.55;99789.53;1798283;78;21145;-70
2021/06/08 08:05:22;;;;;;;3.10;2.83;;;;;;;27.59;44.46;99793.38;1776951;79;21475;-70
2021/06/08 08:07:50;;;;;;;3.20;2.90;;;;;;;27.61;44.02;99782.75;1807339;78;20936;-70
2021/06/08 08:10:22;;;;;;;3.30;2.85;;;;;;;27.54;44.23;99793.44;1793121;79;20964;-71
2021/06/08 08:12:49;;;;;;;3.33;3.00;;;;;;;27.46;43.61;99788.77;1790957;79;20900;-70
2021/06/08 08:15:16;;;;;;;4.30;2.98;;;;;;;27.36;44.04;99782.46;1780482;79;21355;-71
2021/06/08 08:17:44;;;;;;;3.10;2.90;;;;;;;27.48;44.34;99787.55;1760857;79;20894;-68
2021/06/08 08:20:12;;;;;;;3.00;2.80;;;;;;;27.72;43.88;99784.84;1787691;80;20878;-71
2021/06/08 08:22:39;;;;;;;3.30;3.00;;;;;;;27.86;43.48;99784.36;1780811;79;21620;-70
2021/06/08 08:25:11;;;;;;;2.80;2.60;;;;;;;27.68;43.35;99776.09;1779870;79;21042;-72
2021/06/08 08:27:41;;;;;;;3.03;2.70;;;;;;;27.36;43.60;99785.65;1793419;79;21914;-68
2021/06/08 08:30:10;;;;;;;3.02;2.65;;;;;;;27.20;42.89;99781.47;1788043;78;20960;-71
2021/06/08 08:32:37;;;;;;;4.20;2.77;;;;;;;27.16;43.51;99779.73;1776968;79;21032;-70
2021/06/08 08:35:06;;;;;;;2.42;2.33;;;;;;;27.24;42.97;99779.53;1788765;78;21276;-69
2021/06/08 08:37:33;;;;;;;2.90;2.60;;;;;;;27.32;42.98;99775.04;1793905;78;20976;-72
2021/06/08 08:40:00;;;;;;;3.02;2.83;;;;;;;27.38;42.82;99774.23;1792562;79;21065;-69
2021/06/08 08:42:27;;;;;;;2.58;2.40;;;;;;;27.30;43.13;99777.09;1790449;78;20885;-72
2021/06/08 08:44:54;;;;;;;2.60;2.47;;;;;;;27.20;43.56;99776.95;1799613;78;21025;-72
2021/06/08 08:47:23;;;;;;;2.72;2.52;;;;;;;27.06;43.86;99782.45;1801185;78;20997;-70
2021/06/08 08:49:49;;;;;;;2.85;2.65;;;;;;;26.85;44.39;99777.48;1816027;78;20873;-69
2021/06/08 08:52:16;;;;;;;3.62;3.22;;;;;;;26.72;45.63;99772.59;1820937;78;21105;-70
2021/06/08 08:54:44;;;;;;;3.60;2.92;;;;;;;26.66;45.90;99773.37;1819572;78;21065;-71
2021/06/08 08:57:11;;;;;;;7.67;3.00;;;;;;;26.46;45.76;99768.72;1816734;78;20967;-72
2021/06/08 08:59:38;;;;;;;5.05;2.62;;;;;;;26.20;46.27;99773.33;1818738;78;20960;-70
2021/06/08 09:02:05;;;;;;;3.55;2.60;;;;;;;25.96;46.91;99765.75;1795253;78;21018;-71
2021/06/08 09:04:32;;;;;;;4.12;2.75;;;;;;;25.73;46.95;99771.27;1825173;77;22003;-71
2021/06/08 09:06:59;;;;;;;3.08;2.87;;;;;;;25.50;47.39;99769.27;1835002;77;21513;-72
2021/06/08 09:09:26;;;;;;;4.40;2.75;;;;;;;25.33;47.16;99768.66;1809195;77;20930;-71
2021/06/08 09:11:54;;;;;;;3.17;2.70;;;;;;;25.20;47.78;99762.66;1763702;79;20933;-69
2021/06/08 09:14:22;;;;;;;2.77;2.58;;;;;;;25.20;48.13;99761.33;1810641;79;20883;-72
2021/06/08 09:16:49;;;;;;;3.10;2.55;;;;;;;25.34;48.14;99765.48;1838846;77;20976;-69
2021/06/08 09:19:16;;;;;;;2.92;2.55;;;;;;;25.43;48.56;99767.03;1853036;77;20932;-70
2021/06/08 09:21:44;;;;;;;3.08;2.87;;;;;;;25.49;48.71;99765.77;1813152;78;20926;-70
2021/06/08 09:24:21;;;;;;;4.00;2.92;;;;;;;25.54;48.04;99760.70;1771550;77;20986;-71
2021/06/08 09:26:58;;;;;;;3.05;2.80;;;;;;;25.60;47.75;99761.76;1817630;77;20927;-73
2021/06/08 09:29:42;;;;;;;2.90;2.70;;;;;;;25.55;47.73;99759.69;1832950;77;21476;-69
2021/06/08 09:32:28;;;;;;;2.70;2.50;;;;;;;25.54;48.24;99762.55;1823075;77;21013;-72
2021/06/08 09:35:01;;;;;;;4.00;2.65;;;;;;;25.51;49.22;99760.25;1817675;77;20981;-71
2021/06/08 09:37:41;;;;;;;3.45;2.50;;;;;;;25.34;48.73;99769.48;1816754;77;20954;-71
2021/06/08 09:40:19;;;;;;;10.45;3.15;;;;;;;24.98;50.30;99771.63;1808495;77;20985;-71
2021/06/08 09:42:48;;;;;;;6.25;2.92;;;;;;;24.59;52.71;99766.05;1799248;77;21945;-73
2021/06/08 09:45:22;;;;;;;5.08;3.33;;;;;;;24.24;54.67;99777.34;1808195;77;20936;-73
2021/06/08 09:47:59;;;;;;;4.72;3.30;;;;;;;23.97;57.54;99763.30;1810040;78;21011;-72
2021/06/08 09:50:44;;;;;;;5.65;3.37;;;;;;;23.78;59.26;99765.92;1795003;78;21062;-70
2021/06/08 09:53:30;;;;;;;3.77;3.47;;;;;;;23.64;63.03;99758.20;1784870;78;21101;-71
2021/06/08 09:56:09;;;;;;;3.20;3.00;;;;;;;23.61;61.96;99751.41;1781625;79;21138;-71
2021/06/08 09:58:38;;;;;;;3.05;2.83;;;;;;;23.69;61.44;99742.55;1795792;78;20898;-71
2021/06/08 10:01:23;;;;;;;4.40;2.62;;;;;;;23.89;60.79;99744.24;1770399;78;20970;-72
2021/06/08 10:03:55;;;;;;;2.98;2.77;;;;;;;24.14;58.88;99732.87;1797543;78;20901;-72
2021/06/08 10:06:28;;;;;;;3.30;3.00;;;;;;;24.34;56.63;99734.55;1808775;79;21014;-72
2021/06/08 10:09:11;;;;;;;4.42;3.10;;;;;;;24.48;56.34;99733.72;1810696;79;21877;-71
2021/06/08 10:11:41;;;;;;;3.23;3.00;;;;;;;24.62;55.25;99729.41;1809424;79;21011;-73
2021/06/08 10:14:13;;;;;;;2.95;2.72;;;;;;;24.71;53.61;99722.48;1810547;79;20928;-72
2021/06/08 10:16:40;;;;;;;3.02;2.72;;;;;;;24.72;53.39;99726.80;1806781;79;20927;-71
2021/06/08 10:19:07;;;;;;;2.58;2.37;;;;;;;24.67;54.71;99726.52;1798030;79;20911;-71
2021/06/08 10:21:47;;;;;;;2.95;2.80;;;;;;;24.62;53.75;99718.77;1798225;79;21133;-71
2021/06/08 10:24:19;;;;;;;2.70;2.55;;;;;;;24.54;53.51;99727.16;1797794;79;20883;-69
2021/06/08 10:26:52;;;;;;;2.72;2.58;;;;;;;24.56;53.16;99721.15;1798229;79;20970;-69
2021/06/08 10:29:23;;;;;;;3.22;2.90;;;;;;;24.65;52.77;99706.42;1795048;78;20971;-70
2021/06/08 10:31:51;;;;;;;2.85;2.65;;;;;;;24.73;52.98;99710.32;1765553;81;20974;-70
2021/06/08 10:34:18;;;;;;;3.47;3.17;;;;;;;24.79;52.86;99710.91;1764476;81;21114;-72
2021/06/08 10:36:45;;;;;;;2.50;2.35;;;;;;;24.78;51.52;99712.75;1766123;81;21536;-68
2021/06/08 10:39:14;;;;;;;3.17;2.87;;;;;;;24.67;50.38;99709.22;1774334;78;20887;-71
2021/06/08 10:41:44;;;;;;;5.72;2.90;;;;;;;24.63;51.26;99707.11;1786553;79;21474;-72
2021/06/08 10:44:22;;;;;;;2.55;2.17;;;;;;;24.55;50.72;99703.52;1781091;79;21418;-71
2021/06/08 10:46:58;;;;;;;3.47;2.62;;;;;;;24.40;49.12;99698.69;1770574;79;21795;-70
2021/06/08 10:49:39;;;;;;;2.95;2.75;;;;;;;24.23;49.47;99711.33;1780091;80;21521;-73
2021/06/08 10:52:15;;;;;;;2.33;2.22;;;;;;;24.18;51.31;99708.38;1788871;79;21080;-69
2021/06/08 10:54:47;;;;;;;5.17;2.17;;;;;;;24.22;48.98;99708.34;1794784;79;21275;-71
2021/06/08 10:57:16;;;;;;;2.72;2.47;;;;;;;24.19;48.79;99707.38;1797610;79;21392;-71
2021/06/08 10:59:50;;;;;;;2.50;2.30;;;;;;;24.17;48.66;99700.08;1794935;79;21131;-69
2021/06/08 11:02:45;;;;;;;2.15;2.05;;;;;;;24.20;48.67;99701.55;1796017;78;20931;-73
2021/06/08 11:05:14;;;;;;;4.33;2.07;;;;;;;24.30;48.38;99702.66;1826757;77;20975;-70
2021/06/08 11:07:51;;;;;;;2.47;2.00;;;;;;;24.33;48.74;99708.45;1762445;79;20982;-71
2021/06/08 11:10:33;;;;;;;2.55;2.27;;;;;;;24.32;47.84;99697.48;1780699;79;20967;-71
2021/06/08 11:13:17;;;;;;;2.12;2.02;;;;;;;24.25;47.42;99696.55;1741299;81;21153;-72
2021/06/08 11:15:50;;;;;;;2.00;1.90;;;;;;;24.17;47.67;99701.41;1796249;78;20942;-73
2021/06/08 11:18:25;;;;;;;1.67;1.57;;;;;;;24.06;46.15;99693.87;1768263;80;20935;-69
2021/06/08 11:21:05;;;;;;;;;;;;;;;23.97;47.36;99692.82;1792338;78;21497;-69
2021/06/08 11:23:42;;;;;;;2.15;2.05;;;;;;;23.87;47.33;99685.91;1830895;77;20130;-71
2021/06/08 11:26:11;;;;;;;3.17;2.15;;;;;;;23.77;47.40;99687.16;1854038;77;21172;-69
2021/06/08 11:28:51;;;;;;;2.35;2.02;;;;;;;23.63;47.79;99686.61;1789952;77;21603;-69
2021/06/08 11:31:23;;;;;;;2.42;2.22;;;;;;;23.53;48.56;99681.05;1747782;82;20954;-70
2021/06/08 11:33:53;;;;;;;2.70;2.37;;;;;;;23.51;49.42;99686.19;1761260;81;20868;-72
2021/06/08 11:36:28;;;;;;;2.17;2.08;;;;;;;23.50;49.48;99686.69;1760641;81;21505;-70
2021/06/08 11:38:59;;;;;;;2.40;2.20;;;;;;;23.51;49.65;99681.70;1756694;80;21978;-71
2021/06/08 11:41:26;;;;;;;2.60;2.40;;;;;;;23.51;49.68;99677.72;1773967;80;20955;-71
2021/06/08 11:44:02;;;;;;;3.40;2.70;;;;;;;23.51;50.75;99673.73;1775051;79;21006;-70
2021/06/08 11:46:51;;;;;;;2.45;2.30;;;;;;;23.56;51.62;99680.70;1805057;77;20883;-70